Time;durP1;ratioP1;P1;durP2;ratioP2;P2;SDS_P1;SDS_P2;PMS_P1;PMS_P2;Temp;Humidity;BMP_temperature;BMP_pressure;BME280_temperature;BME280_humidity;BME280_pressure;Samples;Min_cycle;Max_cycle;Signal;HPM_P1;HPM_P2
2021/07/15 00:01:26;;;;;;;30.90;6.30;;;;;;;;;;5037916;28;20469;-37
2021/07/15 00:03:53;;;;;;;37.40;6.13;;;;;;;;;;5042628;28;20021;-36
2021/07/15 00:06:20;;;;;;;24.60;5.03;;;;;;;;;;5045466;28;20029;-38
2021/07/15 00:08:47;;;;;;;35.85;5.72;;;;;;;;;;5034689;28;20112;-37
2021/07/15 00:11:15;;;;;;;41.15;5.90;;;;;;;;;;5040742;28;20029;-37
2021/07/15 00:13:42;;;;;;;31.63;5.15;;;;;;;;;;5044088;28;20017;-39
2021/07/15 00:16:10;;;;;;;36.13;5.88;;;;;;;;;;5046014;28;20512;-37
2021/07/15 00:18:40;;;;;;;28.55;5.03;;;;;;;;;;5049723;28;20115;-38
2021/07/15 00:21:08;;;;;;;27.80;5.22;;;;;;;;;;5044380;28;20021;-40
2021/07/15 00:23:36;;;;;;;36.20;5.88;;;;;;;;;;5056562;28;20448;-38
2021/07/15 00:26:04;;;;;;;30.98;5.70;;;;;;;;;;5036926;28;20087;-38
2021/07/15 00:28:35;;;;;;;31.08;6.03;;;;;;;;;;5035745;28;20417;-40
2021/07/15 00:31:02;;;;;;;33.53;5.53;;;;;;;;;;5035227;28;20033;-55
2021/07/15 00:33:29;;;;;;;35.55;5.95;;;;;;;;;;5034571;28;20033;-43
2021/07/15 00:35:57;;;;;;;33.05;6.10;;;;;;;;;;5035336;28;20036;-49
2021/07/15 00:38:25;;;;;;;24.75;5.30;;;;;;;;;;5035211;28;20017;-55
2021/07/15 00:40:52;;;;;;;34.75;6.03;;;;;;;;;;5035052;28;20052;-45
2021/07/15 00:43:19;;;;;;;21.55;4.32;;;;;;;;;;5039553;28;20477;-50
2021/07/15 00:45:46;;;;;;;35.42;5.47;;;;;;;;;;5036089;28;20014;-40
2021/07/15 00:48:14;;;;;;;20.48;4.35;;;;;;;;;;5048416;28;20490;-38
2021/07/15 00:50:41;;;;;;;27.30;5.20;;;;;;;;;;5037356;28;20037;-38
2021/07/15 00:53:09;;;;;;;22.67;4.55;;;;;;;;;;5046653;28;20025;-38
2021/07/15 00:55:41;;;;;;;20.90;4.85;;;;;;;;;;5046718;28;20487;-40
2021/07/15 00:58:08;;;;;;;;;;;;;;;;;;5045916;28;20029;-38
2021/07/15 01:00:36;;;;;;;24.75;5.20;;;;;;;;;;5044555;28;20709;-55
2021/07/15 01:03:03;;;;;;;24.55;5.15;;;;;;;;;;5041650;28;20028;-41
2021/07/15 01:05:32;;;;;;;23.33;5.07;;;;;;;;;;5040973;28;20018;-42
2021/07/15 01:08:01;;;;;;;16.25;3.83;;;;;;;;;;5045932;28;20033;-54
2021/07/15 01:10:31;;;;;;;21.75;4.82;;;;;;;;;;5038501;28;20037;-50
2021/07/15 01:13:01;;;;;;;17.33;4.22;;;;;;;;;;5036821;28;20040;-58
2021/07/15 01:15:31;;;;;;;20.50;4.50;;;;;;;;;;5038041;28;20021;-38
2021/07/15 01:17:58;;;;;;;18.92;4.32;;;;;;;;;;5036427;28;20141;-38
2021/07/15 01:20:38;;;;;;;24.23;4.90;;;;;;;;;;5035855;28;20088;-39
2021/07/15 01:23:28;;;;;;;21.02;4.28;;;;;;;;;;5036602;28;20032;-46
2021/07/15 01:26:15;;;;;;;15.90;3.75;;;;;;;;;;5038795;28;20116;-42
2021/07/15 01:28:56;;;;;;;13.55;3.95;;;;;;;;;;5034483;28;20105;-38
2021/07/15 01:31:24;;;;;;;19.15;4.43;;;;;;;;;;5037707;28;20534;-43
2021/07/15 01:33:51;;;;;;;23.10;4.38;;;;;;;;;;5044543;28;20028;-41
2021/07/15 01:36:19;;;;;;;17.73;3.90;;;;;;;;;;5039744;28;20062;-39
2021/07/15 01:39:00;;;;;;;25.52;5.05;;;;;;;;;;5044345;28;20025;-42
2021/07/15 01:41:30;;;;;;;15.55;4.97;;;;;;;;;;5046449;28;20132;-39
2021/07/15 01:44:00;;;;;;;24.13;4.57;;;;;;;;;;5039670;28;20067;-39
2021/07/15 01:46:27;;;;;;;18.83;4.78;;;;;;;;;;5040513;28;20051;-39
2021/07/15 01:48:54;;;;;;;27.45;5.22;;;;;;;;;;5052998;28;20060;-42
2021/07/15 01:51:22;;;;;;;23.40;5.93;;;;;;;;;;5041305;28;20037;-38
2021/07/15 01:53:50;;;;;;;36.63;6.53;;;;;;;;;;5042727;28;20041;-38
2021/07/15 01:56:18;;;;;;;32.78;7.72;;;;;;;;;;5044834;28;20029;-38
2021/07/15 01:58:45;;;;;;;27.05;8.05;;;;;;;;;;5050726;28;20025;-39
2021/07/15 02:01:13;;;;;;;29.77;8.30;;;;;;;;;;5044491;28;20029;-38
2021/07/15 02:03:45;;;;;;;34.55;7.95;;;;;;;;;;5045561;28;20083;-39
2021/07/15 02:06:13;;;;;;;33.00;8.50;;;;;;;;;;5047981;28;20537;-40
2021/07/15 02:08:42;;;;;;;35.53;9.48;;;;;;;;;;5051678;28;20037;-39
2021/07/15 02:11:10;;;;;;;40.47;9.77;;;;;;;;;;5041024;28;20262;-38
2021/07/15 02:13:38;;;;;;;38.58;10.55;;;;;;;;;;5038600;28;20017;-38
2021/07/15 02:16:07;;;;;;;41.58;9.57;;;;;;;;;;5041163;28;20380;-37
2021/07/15 02:18:34;;;;;;;42.63;9.20;;;;;;;;;;5038867;28;20096;-41
2021/07/15 02:21:01;;;;;;;42.72;10.18;;;;;;;;;;5040407;28;20155;-60
2021/07/15 02:23:29;;;;;;;34.60;8.68;;;;;;;;;;5050306;28;20021;-61
2021/07/15 02:25:57;;;;;;;33.50;7.72;;;;;;;;;;5049931;28;20017;-58
2021/07/15 02:28:25;;;;;;;31.40;8.25;;;;;;;;;;5037829;28;20048;-53
2021/07/15 02:30:54;;;;;;;37.35;8.32;;;;;;;;;;5041940;28;20369;-50
2021/07/15 02:33:24;;;;;;;34.05;8.23;;;;;;;;;;5038984;28;20024;-37
2021/07/15 02:35:52;;;;;;;41.15;8.13;;;;;;;;;;5039382;28;20060;-38
2021/07/15 02:38:22;;;;;;;29.90;9.27;;;;;;;;;;5037184;28;20022;-42
2021/07/15 02:40:50;;;;;;;32.47;8.32;;;;;;;;;;5035744;28;20460;-39
2021/07/15 02:43:17;;;;;;;31.38;7.70;;;;;;;;;;5043717;28;20447;-37
2021/07/15 02:45:44;;;;;;;38.30;8.07;;;;;;;;;;5047784;28;20026;-38
2021/07/15 02:48:14;;;;;;;35.22;7.90;;;;;;;;;;5039722;28;20017;-47
2021/07/15 02:50:41;;;;;;;44.05;8.23;;;;;;;;;;5051134;28;20476;-38
2021/07/15 02:53:08;;;;;;;27.50;7.05;;;;;;;;;;5036581;28;20068;-37
2021/07/15 02:55:35;;;;;;;34.85;8.00;;;;;;;;;;5038692;28;20021;-38
2021/07/15 02:58:08;;;;;;;25.05;7.15;;;;;;;;;;5039275;28;20055;-38
2021/07/15 03:00:42;;;;;;;23.88;6.60;;;;;;;;;;5040851;28;20116;-38
2021/07/15 03:03:09;;;;;;;29.73;7.65;;;;;;;;;;5040941;28;20460;-60
2021/07/15 03:05:42;;;;;;;22.75;6.15;;;;;;;;;;5039171;28;20029;-58
2021/07/15 03:08:10;;;;;;;30.30;7.93;;;;;;;;;;5034041;28;20019;-59
2021/07/15 03:10:37;;;;;;;27.67;6.82;;;;;;;;;;5034340;28;20026;-60
2021/07/15 03:13:08;;;;;;;25.33;5.82;;;;;;;;;;5039580;28;20057;-50
2021/07/15 03:15:37;;;;;;;23.67;6.25;;;;;;;;;;5056198;28;20048;-41
2021/07/15 03:18:05;;;;;;;27.60;7.00;;;;;;;;;;5049245;28;20071;-43
2021/07/15 03:20:37;;;;;;;26.92;6.00;;;;;;;;;;5048008;28;20412;-47
2021/07/15 03:23:06;;;;;;;21.92;6.20;;;;;;;;;;5045213;28;20071;-50
2021/07/15 03:25:37;;;;;;;19.52;5.65;;;;;;;;;;5047615;28;20024;-42
2021/07/15 03:28:09;;;;;;;26.25;6.13;;;;;;;;;;5051382;28;20399;-42
2021/07/15 03:30:37;;;;;;;20.73;5.65;;;;;;;;;;5051340;28;20479;-37
2021/07/15 03:33:04;;;;;;;21.33;6.00;;;;;;;;;;5046814;28;20039;-39
2021/07/15 03:35:31;;;;;;;29.88;5.50;;;;;;;;;;5052280;28;20052;-38
2021/07/15 03:37:59;;;;;;;20.40;5.13;;;;;;;;;;5052557;28;20017;-39
2021/07/15 03:40:27;;;;;;;22.63;5.45;;;;;;;;;;5052453;28;20013;-41
2021/07/15 03:42:55;;;;;;;18.23;4.85;;;;;;;;;;5048372;28;20254;-39
2021/07/15 03:45:22;;;;;;;17.77;5.00;;;;;;;;;;5052218;28;20384;-39
2021/07/15 03:47:52;;;;;;;18.08;5.30;;;;;;;;;;5052734;28;20017;-40
2021/07/15 03:50:23;;;;;;;19.88;4.88;;;;;;;;;;5051926;28;20049;-40
2021/07/15 03:52:51;;;;;;;19.55;4.65;;;;;;;;;;5050344;28;20376;-39
2021/07/15 03:55:21;;;;;;;18.48;4.93;;;;;;;;;;5049954;28;20017;-41
2021/07/15 03:57:48;;;;;;;22.95;4.97;;;;;;;;;;5052489;28;20100;-40
2021/07/15 04:00:15;;;;;;;17.40;5.47;;;;;;;;;;5051991;28;20017;-45
2021/07/15 04:02:43;;;;;;;16.88;4.68;;;;;;;;;;5052014;28;20024;-46
2021/07/15 04:05:11;;;;;;;16.05;4.13;;;;;;;;;;5047665;28;20369;-44
2021/07/15 04:07:40;;;;;;;17.20;4.38;;;;;;;;;;5052311;28;20025;-39
2021/07/15 04:10:07;;;;;;;20.00;4.43;;;;;;;;;;5051684;28;20029;-43
2021/07/15 04:12:35;;;;;;;13.65;4.10;;;;;;;;;;5051648;28;20116;-40
2021/07/15 04:15:09;;;;;;;14.43;4.20;;;;;;;;;;5047137;28;20532;-39
2021/07/15 04:17:48;;;;;;;13.52;4.00;;;;;;;;;;5052316;28;20023;-39
2021/07/15 04:20:16;;;;;;;13.57;3.97;;;;;;;;;;5051865;28;20017;-40
2021/07/15 04:22:44;;;;;;;18.02;4.68;;;;;;;;;;5051791;28;20032;-40
2021/07/15 04:25:12;;;;;;;13.27;4.25;;;;;;;;;;5044851;28;20025;-41
2021/07/15 04:27:40;;;;;;;13.98;4.00;;;;;;;;;;5051950;28;20154;-41
2021/07/15 04:30:08;;;;;;;15.02;4.05;;;;;;;;;;5051554;28;20426;-39
2021/07/15 04:32:35;;;;;;;14.40;4.03;;;;;;;;;;5051502;28;20035;-41
2021/07/15 04:35:03;;;;;;;9.13;3.28;;;;;;;;;;5044708;28;20028;-38
2021/07/15 04:37:31;;;;;;;15.25;4.50;;;;;;;;;;5051812;28;20048;-39
2021/07/15 04:39:59;;;;;;;13.73;3.63;;;;;;;;;;5051471;28;20036;-39
2021/07/15 04:42:26;;;;;;;19.42;4.15;;;;;;;;;;5051373;28;20412;-38
2021/07/15 04:44:53;;;;;;;16.02;3.67;;;;;;;;;;5039112;28;20037;-39
2021/07/15 04:47:23;;;;;;;14.70;3.92;;;;;;;;;;5032106;28;20022;-44
2021/07/15 04:49:50;;;;;;;13.05;3.60;;;;;;;;;;5031556;28;20028;-39
2021/07/15 04:52:18;;;;;;;12.75;3.30;;;;;;;;;;5031177;28;20374;-39
2021/07/15 04:54:46;;;;;;;10.43;3.60;;;;;;;;;;5031070;28;20523;-39
2021/07/15 04:57:13;;;;;;;12.45;3.42;;;;;;;;;;5051687;28;20524;-38
2021/07/15 04:59:41;;;;;;;11.48;3.40;;;;;;;;;;5051661;28;20705;-40
2021/07/15 05:02:08;;;;;;;11.00;3.05;;;;;;;;;;5051139;28;20036;-40
2021/07/15 05:04:36;;;;;;;12.60;3.55;;;;;;;;;;5048891;28;20037;-56
2021/07/15 05:07:03;;;;;;;13.07;3.38;;;;;;;;;;5049037;28;20091;-63
2021/07/15 05:09:30;;;;;;;8.80;2.90;;;;;;;;;;5051605;28;20071;-51
2021/07/15 05:11:57;;;;;;;9.13;2.85;;;;;;;;;;5050519;28;20125;-64
2021/07/15 05:14:24;;;;;;;12.57;3.22;;;;;;;;;;5051220;28;20025;-64
2021/07/15 05:16:51;;;;;;;10.73;3.35;;;;;;;;;;5031161;28;20029;-64
2021/07/15 05:19:18;;;;;;;8.80;2.88;;;;;;;;;;5031576;28;20124;-62
2021/07/15 05:21:45;;;;;;;10.35;3.30;;;;;;;;;;5030936;28;20033;-58
2021/07/15 05:24:12;;;;;;;9.30;3.05;;;;;;;;;;5030077;28;20021;-63
2021/07/15 05:26:39;;;;;;;5.97;2.75;;;;;;;;;;5029898;28;20033;-63
2021/07/15 05:29:06;;;;;;;8.05;2.63;;;;;;;;;;5035373;28;20032;-64
2021/07/15 05:31:33;;;;;;;12.93;3.00;;;;;;;;;;5034872;28;20172;-60
2021/07/15 05:34:00;;;;;;;7.00;2.53;;;;;;;;;;5035011;28;20087;-61
2021/07/15 05:36:27;;;;;;;10.20;2.55;;;;;;;;;;5039892;28;20024;-63
2021/07/15 05:38:54;;;;;;;9.85;2.70;;;;;;;;;;5050950;28;20444;-38
2021/07/15 05:41:21;;;;;;;7.90;2.78;;;;;;;;;;5053946;28;20112;-37
2021/07/15 05:43:49;;;;;;;6.43;2.70;;;;;;;;;;5054361;28;20021;-37
2021/07/15 05:46:16;;;;;;;7.43;2.53;;;;;;;;;;5050045;28;20100;-39
2021/07/15 05:48:43;;;;;;;9.50;2.85;;;;;;;;;;5052444;28;20017;-57
2021/07/15 05:51:10;;;;;;;5.82;2.47;;;;;;;;;;5054330;28;20072;-38
2021/07/15 05:53:38;;;;;;;6.20;2.15;;;;;;;;;;5054195;28;20066;-40
2021/07/15 05:56:05;;;;;;;8.02;2.75;;;;;;;;;;5049930;28;20478;-38
2021/07/15 05:58:32;;;;;;;6.28;2.13;;;;;;;;;;5054202;28;20484;-38
2021/07/15 06:00:59;;;;;;;6.20;2.45;;;;;;;;;;5052408;28;20056;-38
2021/07/15 06:03:26;;;;;;;5.82;2.22;;;;;;;;;;5053781;28;20021;-42
2021/07/15 06:05:53;;;;;;;5.68;2.10;;;;;;;;;;5052646;28;20378;-52
2021/07/15 06:08:20;;;;;;;6.13;2.25;;;;;;;;;;5051113;28;20384;-41
2021/07/15 06:10:47;;;;;;;6.10;1.90;;;;;;;;;;5053312;28;20043;-51
2021/07/15 06:13:14;;;;;;;7.18;2.25;;;;;;;;;;5051839;28;20028;-61
2021/07/15 06:15:41;;;;;;;5.78;2.08;;;;;;;;;;5053878;28;20099;-60
2021/07/15 06:18:09;;;;;;;6.82;1.95;;;;;;;;;;5049470;28;20025;-54
2021/07/15 06:20:36;;;;;;;7.28;2.20;;;;;;;;;;5054097;28;20017;-58
2021/07/15 06:23:03;;;;;;;5.45;2.15;;;;;;;;;;5052537;28;20096;-60
2021/07/15 06:25:30;;;;;;;5.75;2.10;;;;;;;;;;5051165;28;20029;-49
2021/07/15 06:27:57;;;;;;;5.55;2.00;;;;;;;;;;5049114;28;20025;-54
2021/07/15 06:30:24;;;;;;;4.97;1.58;;;;;;;;;;5053994;28;20072;-62
2021/07/15 06:32:52;;;;;;;7.13;2.20;;;;;;;;;;5053478;28;20038;-62
2021/07/15 06:35:23;;;;;;;5.97;1.90;;;;;;;;;;5051915;28;20032;-38
2021/07/15 06:37:54;;;;;;;7.85;2.33;;;;;;;;;;5048496;28;20028;-40
2021/07/15 06:40:22;;;;;;;7.35;1.77;;;;;;;;;;5053727;28;20017;-38
2021/07/15 06:42:50;;;;;;;5.30;2.05;;;;;;;;;;5053071;28;20120;-39
2021/07/15 06:45:17;;;;;;;3.83;1.45;;;;;;;;;;5053282;28;20029;-38
2021/07/15 06:47:44;;;;;;;4.40;1.63;;;;;;;;;;5046718;28;20021;-39
2021/07/15 06:50:12;;;;;;;5.40;1.77;;;;;;;;;;5053558;28;20045;-38
2021/07/15 06:52:39;;;;;;;4.93;1.77;;;;;;;;;;5053030;28;20029;-42
2021/07/15 06:55:07;;;;;;;4.88;1.63;;;;;;;;;;5053126;28;20087;-39
2021/07/15 06:57:35;;;;;;;3.90;1.40;;;;;;;;;;5048616;28;20029;-39
2021/07/15 07:00:03;;;;;;;4.80;1.80;;;;;;;;;;5051181;28;20028;-37
2021/07/15 07:02:30;;;;;;;5.78;1.88;;;;;;;;;;5052238;28;20473;-39
2021/07/15 07:04:58;;;;;;;4.28;1.60;;;;;;;;;;5052957;28;20029;-41
2021/07/15 07:07:25;;;;;;;3.90;1.70;;;;;;;;;;5051023;28;20040;-39
2021/07/15 07:09:52;;;;;;;5.57;1.52;;;;;;;;;;5050313;28;20029;-40
2021/07/15 07:12:19;;;;;;;4.18;1.60;;;;;;;;;;5051049;28;20033;-39
2021/07/15 07:14:46;;;;;;;4.95;1.70;;;;;;;;;;5052717;28;20028;-39
2021/07/15 07:17:14;;;;;;;5.47;1.63;;;;;;;;;;5052828;28;20013;-39
2021/07/15 07:19:41;;;;;;;3.58;1.38;;;;;;;;;;5048271;28;20475;-39
2021/07/15 07:22:08;;;;;;;4.80;1.55;;;;;;;;;;5051846;28;20028;-40
2021/07/15 07:24:35;;;;;;;3.03;1.20;;;;;;;;;;5051404;28;20495;-43
2021/07/15 07:27:02;;;;;;;3.63;1.40;;;;;;;;;;5053000;28;20024;-39
2021/07/15 07:29:28;;;;;;;3.58;1.60;;;;;;;;;;5048347;28;20087;-39
2021/07/15 07:31:55;;;;;;;4.20;1.38;;;;;;;;;;5052493;28;20025;-39
2021/07/15 07:34:23;;;;;;;4.78;1.55;;;;;;;;;;5050978;28;20025;-38
2021/07/15 07:36:50;;;;;;;3.50;1.40;;;;;;;;;;5050458;28;20028;-39
2021/07/15 07:39:17;;;;;;;4.13;1.35;;;;;;;;;;5048124;28;20032;-38
2021/07/15 07:41:44;;;;;;;3.92;1.38;;;;;;;;;;5052218;28;20099;-43
2021/07/15 07:44:11;;;;;;;4.03;1.58;;;;;;;;;;5048229;28;20025;-38
2021/07/15 07:46:38;;;;;;;3.40;1.50;;;;;;;;;;5047810;28;20025;-40
2021/07/15 07:49:05;;;;;;;3.03;1.20;;;;;;;;;;5047168;28;20049;-40
2021/07/15 07:51:32;;;;;;;3.10;1.20;;;;;;;;;;5051649;28;20484;-41
2021/07/15 07:54:00;;;;;;;2.80;1.42;;;;;;;;;;5051919;28;20108;-40
2021/07/15 07:56:27;;;;;;;3.05;1.30;;;;;;;;;;5051101;28;20036;-45
2021/07/15 07:58:54;;;;;;;3.13;1.35;;;;;;;;;;5045874;28;20029;-40
2021/07/15 08:01:21;;;;;;;2.75;1.10;;;;;;;;;;5051324;28;20503;-44
2021/07/15 08:03:48;;;;;;;3.30;1.40;;;;;;;;;;5051799;28;20538;-42
2021/07/15 08:06:15;;;;;;;3.75;1.20;;;;;;;;;;5051728;28;20480;-46
2021/07/15 08:08:43;;;;;;;2.30;1.25;;;;;;;;;;5049780;28;20025;-40
2021/07/15 08:11:10;;;;;;;2.85;1.05;;;;;;;;;;5027651;28;20021;-41
2021/07/15 08:13:37;;;;;;;4.10;1.25;;;;;;;;;;5031932;28;20473;-41
2021/07/15 08:16:04;;;;;;;4.45;1.08;;;;;;;;;;5031591;28;20010;-44
2021/07/15 08:18:31;;;;;;;2.78;1.33;;;;;;;;;;5031575;28;20033;-40
2021/07/15 08:20:58;;;;;;;3.08;1.17;;;;;;;;;;5028376;28;20017;-41
2021/07/15 08:23:25;;;;;;;3.03;1.02;;;;;;;;;;5030921;28;20029;-41
2021/07/15 08:25:52;;;;;;;2.25;1.00;;;;;;;;;;5031367;28;20164;-41
2021/07/15 08:28:19;;;;;;;2.92;1.15;;;;;;;;;;5031750;28;20025;-39
2021/07/15 08:30:46;;;;;;;2.90;1.20;;;;;;;;;;5027600;28;20033;-41
2021/07/15 08:33:13;;;;;;;3.00;1.25;;;;;;;;;;5029948;28;20450;-41
2021/07/15 08:35:40;;;;;;;2.38;1.23;;;;;;;;;;5030967;28;20013;-39
2021/07/15 08:38:09;;;;;;;2.58;1.13;;;;;;;;;;5031581;28;20037;-40
2021/07/15 08:40:36;;;;;;;1.90;0.98;;;;;;;;;;5034089;28;20025;-39
2021/07/15 08:43:03;;;;;;;2.75;1.15;;;;;;;;;;5051358;28;21004;-40
2021/07/15 08:45:31;;;;;;;2.05;0.90;;;;;;;;;;5049204;28;20024;-39
2021/07/15 08:48:00;;;;;;;3.17;1.08;;;;;;;;;;5051047;28;20032;-40
2021/07/15 08:50:29;;;;;;;2.67;1.08;;;;;;;;;;5042805;28;20033;-41
2021/07/15 08:52:56;;;;;;;4.40;1.25;;;;;;;;;;5051357;28;20107;-41
2021/07/15 08:58:10;;;;;;;2.60;1.02;;;;;;;;;;5049394;28;20028;-40
2021/07/15 09:00:37;;;;;;;3.70;1.15;;;;;;;;;;5043203;28;20041;-41
2021/07/15 09:03:04;;;;;;;2.42;1.10;;;;;;;;;;5053836;28;20021;-41
2021/07/15 09:05:31;;;;;;;2.47;1.08;;;;;;;;;;5055623;28;20128;-40
2021/07/15 09:07:58;;;;;;;1.88;0.90;;;;;;;;;;5054290;28;20633;-40
2021/07/15 09:10:25;;;;;;;2.80;0.93;;;;;;;;;;5048729;28;20562;-39
2021/07/15 09:12:52;;;;;;;2.30;0.95;;;;;;;;;;5053434;28;20033;-40
2021/07/15 09:15:20;;;;;;;2.60;1.00;;;;;;;;;;5055234;28;20083;-40
2021/07/15 09:17:47;;;;;;;2.25;1.00;;;;;;;;;;5054899;28;20021;-39
2021/07/15 09:20:17;;;;;;;2.42;0.82;;;;;;;;;;5054451;28;20025;-40
2021/07/15 09:23:02;;;;;;;2.38;0.90;;;;;;;;;;5049644;28;20029;-38
2021/07/15 09:25:31;;;;;;;2.50;1.00;;;;;;;;;;5055159;28;20071;-40
2021/07/15 09:27:57;;;;;;;1.33;0.80;;;;;;;;;;5054473;28;20512;-40
2021/07/15 09:30:25;;;;;;;4.70;0.90;;;;;;;;;;5054871;28;20451;-39
2021/07/15 09:32:52;;;;;;;2.17;1.00;;;;;;;;;;5048923;28;20090;-40
2021/07/15 09:35:30;;;;;;;1.63;0.77;;;;;;;;;;5054003;28;20524;-40
2021/07/15 09:38:07;;;;;;;1.05;0.70;;;;;;;;;;5054264;28;20029;-40
2021/07/15 09:40:43;;;;;;;1.92;0.80;;;;;;;;;;5054452;28;20032;-38
2021/07/15 09:43:16;;;;;;;1.00;0.70;;;;;;;;;;5050307;28;20037;-40
2021/07/15 09:45:45;;;;;;;1.48;0.90;;;;;;;;;;5052481;28;20017;-40
2021/07/15 09:48:16;;;;;;;1.75;0.60;;;;;;;;;;5054304;28;20079;-40
2021/07/15 09:50:43;;;;;;;2.03;0.90;;;;;;;;;;5054344;28;20037;-40
2021/07/15 09:53:17;;;;;;;2.97;0.70;;;;;;;;;;5048381;28;20064;-40
2021/07/15 09:55:45;;;;;;;1.33;0.70;;;;;;;;;;5054328;28;20031;-39
2021/07/15 09:58:13;;;;;;;1.65;0.75;;;;;;;;;;5052538;28;20033;-40
2021/07/15 10:00:41;;;;;;;1.25;0.65;;;;;;;;;;5054128;28;20019;-39
2021/07/15 10:03:10;;;;;;;2.53;1.10;;;;;;;;;;5048644;28;20435;-40
2021/07/15 10:05:38;;;;;;;4.57;0.77;;;;;;;;;;5054122;28;20526;-40
2021/07/15 10:08:09;;;;;;;2.28;0.60;;;;;;;;;;5053485;28;20029;-40
2021/07/15 10:10:37;;;;;;;1.73;0.90;;;;;;;;;;5052154;28;20103;-40
2021/07/15 10:13:13;;;;;;;1.23;0.60;;;;;;;;;;5044944;28;20029;-40
2021/07/15 10:15:40;;;;;;;3.53;0.88;;;;;;;;;;5054042;28;20025;-40
2021/07/15 10:18:07;;;;;;;1.50;0.88;;;;;;;;;;5054296;28;20512;-40
2021/07/15 10:20:34;;;;;;;1.95;0.80;;;;;;;;;;5052883;28;20148;-41
2021/07/15 10:23:02;;;;;;;1.23;0.80;;;;;;;;;;5039117;28;20033;-39
2021/07/15 10:25:29;;;;;;;2.47;0.93;;;;;;;;;;5033877;28;20496;-39
2021/07/15 10:27:56;;;;;;;1.45;0.63;;;;;;;;;;5034324;28;20033;-39
2021/07/15 10:30:23;;;;;;;3.70;0.80;;;;;;;;;;5033726;28;20025;-40
2021/07/15 10:32:53;;;;;;;1.40;0.88;;;;;;;;;;5031820;28;20041;-40
2021/07/15 10:35:22;;;;;;;0.93;0.50;;;;;;;;;;5033186;28;20099;-40
2021/07/15 10:37:49;;;;;;;1.25;0.70;;;;;;;;;;5033632;28;20025;-40
2021/07/15 10:40:17;;;;;;;2.50;0.77;;;;;;;;;;5033178;28;20048;-40
2021/07/15 10:42:44;;;;;;;1.52;0.70;;;;;;;;;;5031583;28;20079;-40
2021/07/15 10:45:12;;;;;;;2.38;0.75;;;;;;;;;;5050899;28;20021;-39
2021/07/15 10:47:40;;;;;;;0.80;0.60;;;;;;;;;;5052726;28;20028;-40
2021/07/15 10:50:08;;;;;;;1.13;0.77;;;;;;;;;;5053428;28;20098;-39
2021/07/15 10:52:35;;;;;;;1.50;0.63;;;;;;;;;;5051216;28;20033;-38
2021/07/15 10:55:03;;;;;;;2.83;0.90;;;;;;;;;;5031040;28;20067;-41
2021/07/15 10:57:31;;;;;;;1.58;0.90;;;;;;;;;;5031293;28;20018;-40
2021/07/15 11:00:16;;;;;;;3.80;0.77;;;;;;;;;;5032977;28;20025;-40
2021/07/15 11:02:43;;;;;;;1.95;0.75;;;;;;;;;;5032825;28;20022;-40
2021/07/15 11:05:26;;;;;;;1.60;0.90;;;;;;;;;;5031501;28;20032;-41
2021/07/15 11:07:53;;;;;;;1.05;0.60;;;;;;;;;;5032823;28;20014;-40
2021/07/15 11:10:22;;;;;;;2.25;0.70;;;;;;;;;;5030717;28;20024;-39
2021/07/15 11:12:55;;;;;;;1.40;0.80;;;;;;;;;;5032700;28;20030;-41
2021/07/15 11:15:22;;;;;;;1.30;0.80;;;;;;;;;;5048795;28;20060;-41
2021/07/15 11:17:52;;;;;;;2.25;0.85;;;;;;;;;;5052905;28;20048;-41
2021/07/15 11:20:29;;;;;;;2.38;0.63;;;;;;;;;;5052204;28;20057;-39
2021/07/15 11:23:00;;;;;;;1.65;0.75;;;;;;;;;;5051437;28;20468;-41
2021/07/15 11:25:38;;;;;;;1.65;0.70;;;;;;;;;;5047115;28;20075;-41
2021/07/15 11:28:12;;;;;;;2.40;0.70;;;;;;;;;;5052733;28;20029;-40
2021/07/15 11:30:39;;;;;;;2.97;0.70;;;;;;;;;;5052292;28;20100;-40
2021/07/15 11:33:19;;;;;;;0.80;0.60;;;;;;;;;;5050653;28;20029;-40
2021/07/15 11:36:01;;;;;;;1.98;0.60;;;;;;;;;;5047691;28;20021;-41
2021/07/15 11:38:29;;;;;;;1.15;0.50;;;;;;;;;;5052422;28;20025;-41
2021/07/15 11:41:01;;;;;;;2.47;0.90;;;;;;;;;;5052093;28;20021;-40
2021/07/15 11:43:33;;;;;;;1.05;0.70;;;;;;;;;;5052162;28;20535;-41
2021/07/15 11:46:06;;;;;;;0.93;0.60;;;;;;;;;;5046221;28;20029;-41
2021/07/15 11:48:51;;;;;;;1.92;0.60;;;;;;;;;;5052357;28;20100;-40
2021/07/15 11:51:29;;;;;;;1.35;0.68;;;;;;;;;;5052267;28;20017;-40
2021/07/15 11:54:15;;;;;;;2.08;0.85;;;;;;;;;;5051745;28;20029;-40
2021/07/15 11:56:42;;;;;;;0.88;0.65;;;;;;;;;;5049085;28;20575;-40
2021/07/15 11:59:10;;;;;;;1.48;0.80;;;;;;;;;;5050860;28;20468;-40
2021/07/15 12:01:37;;;;;;;2.55;0.80;;;;;;;;;;5052160;28;20103;-39
2021/07/15 12:04:10;;;;;;;1.48;0.63;;;;;;;;;;5052090;28;20044;-40
2021/07/15 12:06:44;;;;;;;2.83;0.68;;;;;;;;;;5048793;28;20033;-40
2021/07/15 12:09:14;;;;;;;2.40;0.60;;;;;;;;;;5050154;28;20025;-41
2021/07/15 12:11:42;;;;;;;2.15;1.05;;;;;;;;;;5050918;28;20072;-39
2021/07/15 12:14:09;;;;;;;1.63;0.65;;;;;;;;;;5051061;28;20021;-41
2021/07/15 12:16:41;;;;;;;0.85;0.60;;;;;;;;;;5045290;28;20532;-38
2021/07/15 12:19:09;;;;;;;0.98;0.60;;;;;;;;;;5051159;28;20021;-41
2021/07/15 12:21:37;;;;;;;1.60;1.00;;;;;;;;;;5048859;28;20033;-39
2021/07/15 12:24:18;;;;;;;1.10;0.70;;;;;;;;;;5050599;28;20074;-39
2021/07/15 12:26:46;;;;;;;1.00;0.50;;;;;;;;;;5046533;28;20024;-38
2021/07/15 12:29:15;;;;;;;0.88;0.60;;;;;;;;;;5051546;28;20037;-38
2021/07/15 12:31:42;;;;;;;1.02;0.50;;;;;;;;;;5051014;28;20094;-40
2021/07/15 12:34:10;;;;;;;1.65;0.60;;;;;;;;;;5049185;28;20075;-40
2021/07/15 12:36:39;;;;;;;3.15;0.73;;;;;;;;;;5046150;28;20043;-41
2021/07/15 12:39:08;;;;;;;1.38;0.63;;;;;;;;;;5051271;28;20029;-40
2021/07/15 12:41:39;;;;;;;2.17;0.80;;;;;;;;;;5049841;28;20049;-52
2021/07/15 12:44:12;;;;;;;1.77;0.68;;;;;;;;;;5050509;28;20027;-53
2021/07/15 12:46:43;;;;;;;4.38;0.63;;;;;;;;;;5045212;28;20151;-47
2021/07/15 12:49:24;;;;;;;1.10;0.50;;;;;;;;;;5048781;28;20017;-47
2021/07/15 12:51:56;;;;;;;1.65;0.75;;;;;;;;;;5048914;28;20029;-46
2021/07/15 12:54:33;;;;;;;4.65;0.95;;;;;;;;;;5049704;28;20068;-47
2021/07/15 12:57:00;;;;;;;1.45;0.70;;;;;;;;;;5043868;28;20036;-47
2021/07/15 12:59:28;;;;;;;4.30;0.50;;;;;;;;;;5049650;28;20096;-47
2021/07/15 13:01:55;;;;;;;3.40;0.88;;;;;;;;;;5050785;28;20025;-46
2021/07/15 13:04:23;;;;;;;1.58;0.60;;;;;;;;;;5050971;28;20025;-46
2021/07/15 13:06:52;;;;;;;2.90;0.75;;;;;;;;;;5046809;28;20025;-46
2021/07/15 13:09:31;;;;;;;1.65;0.65;;;;;;;;;;5048403;28;20056;-45
2021/07/15 13:14:51;;;;;;;3.15;0.77;;;;;;;;;;5049783;28;20044;-47
2021/07/15 13:17:19;;;;;;;1.15;0.55;;;;;;;;;;5046247;28;20039;-43
2021/07/15 13:19:51;;;;;;;2.45;0.65;;;;;;;;;;5049765;28;20531;-46
2021/07/15 13:22:19;;;;;;;2.93;1.13;;;;;;;;;;5046861;28;20109;-47
2021/07/15 13:24:47;;;;;;;3.28;0.68;;;;;;;;;;5050808;28;20066;-54
2021/07/15 13:27:15;;;;;;;4.53;0.60;;;;;;;;;;5046031;28;20071;-46
2021/07/15 13:29:42;;;;;;;4.45;0.90;;;;;;;;;;5050682;28;20028;-47
2021/07/15 13:32:23;;;;;;;1.60;0.50;;;;;;;;;;5049360;28;20036;-49
2021/07/15 13:34:52;;;;;;;1.90;0.50;;;;;;;;;;5049993;28;20021;-44
2021/07/15 13:37:39;;;;;;;2.75;0.68;;;;;;;;;;5046444;28;20508;-44
2021/07/15 13:40:15;;;;;;;0.77;0.50;;;;;;;;;;5050129;28;20068;-49
2021/07/15 13:42:43;;;;;;;2.90;0.65;;;;;;;;;;5050128;28;20120;-48
2021/07/15 13:45:11;;;;;;;1.70;0.52;;;;;;;;;;5046862;28;20029;-49
2021/07/15 13:47:39;;;;;;;4.38;0.60;;;;;;;;;;5045204;28;20047;-47
2021/07/15 13:50:10;;;;;;;4.03;0.85;;;;;;;;;;5054124;28;20035;-51
2021/07/15 13:52:41;;;;;;;3.75;0.80;;;;;;;;;;5054110;28;20496;-48
2021/07/15 13:55:08;;;;;;;4.55;0.70;;;;;;;;;;5053698;28;20053;-43
2021/07/15 13:57:40;;;;;;;4.57;0.95;;;;;;;;;;5051717;28;20070;-45
2021/07/15 14:00:09;;;;;;;3.03;0.50;;;;;;;;;;5049587;28;20477;-47
2021/07/15 14:02:36;;;;;;;2.35;0.45;;;;;;;;;;5053026;28;20391;-48
2021/07/15 14:05:03;;;;;;;3.75;0.80;;;;;;;;;;5052702;28;20634;-46
2021/07/15 14:07:32;;;;;;;6.88;0.63;;;;;;;;;;5053671;28;20477;-44
2021/07/15 14:10:10;;;;;;;1.58;0.60;;;;;;;;;;5051235;28;20527;-45
2021/07/15 14:12:38;;;;;;;5.75;0.77;;;;;;;;;;5042403;28;20488;-48
2021/07/15 14:15:05;;;;;;;3.67;0.88;;;;;;;;;;5049115;28;20468;-49
2021/07/15 14:17:33;;;;;;;2.83;0.80;;;;;;;;;;5046396;28;20017;-48
2021/07/15 14:20:03;;;;;;;5.20;0.77;;;;;;;;;;5050933;28;20108;-45
2021/07/15 14:22:30;;;;;;;3.28;0.75;;;;;;;;;;5059120;28;20497;-50
2021/07/15 14:24:57;;;;;;;3.85;0.80;;;;;;;;;;5047513;28;20009;-46
2021/07/15 14:27:24;;;;;;;2.90;0.50;;;;;;;;;;5051000;28;20021;-50
2021/07/15 14:29:54;;;;;;;5.97;0.73;;;;;;;;;;5046464;28;20021;-47
2021/07/15 14:32:21;;;;;;;1.63;0.50;;;;;;;;;;5045066;28;20041;-43
2021/07/15 14:34:48;;;;;;;5.25;0.70;;;;;;;;;;5046703;28;20021;-49
2021/07/15 14:37:15;;;;;;;3.58;0.80;;;;;;;;;;5047601;28;20041;-49
2021/07/15 14:39:42;;;;;;;5.30;0.70;;;;;;;;;;5049892;28;20029;-47
2021/07/15 14:42:09;;;;;;;1.65;0.50;;;;;;;;;;5045047;28;20068;-44
2021/07/15 14:44:36;;;;;;;2.50;0.80;;;;;;;;;;5044512;28;20029;-48
2021/07/15 14:47:03;;;;;;;3.05;0.80;;;;;;;;;;5049522;28;20029;-42
2021/07/15 14:49:30;;;;;;;3.63;0.60;;;;;;;;;;5052617;28;20380;-46
2021/07/15 14:51:57;;;;;;;1.77;0.75;;;;;;;;;;5042713;28;20040;-45
2021/07/15 14:54:25;;;;;;;2.75;0.70;;;;;;;;;;5046843;28;20025;-44